Time;durP1;ratioP1;P1;durP2;ratioP2;P2;SDS_P1;SDS_P2;PMS_P1;PMS_P2;Temp;Humidity;BMP_temperature;BMP_pressure;BME280_temperature;BME280_humidity;BME280_pressure;Samples;Min_cycle;Max_cycle;Signal;HPM_P1;HPM_P2
2023/04/19 00:01:51;;;;;;;;;;;12.70;99.90;;;;;;4987900;28;19913;-63
2023/04/19 00:04:16;;;;;;;;;;;12.70;99.90;;;;;;4983067;28;20394;-60
2023/04/19 00:06:42;;;;;;;;;;;12.70;99.90;;;;;;4981403;28;19917;-60
2023/04/19 00:09:07;;;;;;;;;;;12.60;99.90;;;;;;4978435;28;19929;-62
2023/04/19 00:11:33;;;;;;;;;;;12.70;99.90;;;;;;4979726;28;20056;-57
2023/04/19 00:13:59;;;;;;;;;;;12.70;99.90;;;;;;4980805;28;19973;-62
2023/04/19 00:16:24;;;;;;;;;;;12.60;99.90;;;;;;4985738;28;19922;-63
2023/04/19 00:18:50;;;;;;;;;;;12.60;99.90;;;;;;4987523;28;19950;-63
2023/04/19 00:21:15;;;;;;;;;;;12.70;99.90;;;;;;4987465;28;19975;-62
2023/04/19 00:23:41;;;;;;;;;;;12.60;99.90;;;;;;4986740;28;19962;-62
2023/04/19 00:26:06;;;;;;;;;;;12.60;99.90;;;;;;4989022;28;19922;-61
2023/04/19 00:28:32;;;;;;;;;;;12.60;99.90;;;;;;4991921;28;20368;-62
2023/04/19 00:30:58;;;;;;;;;;;12.60;99.90;;;;;;4991162;28;20269;-61
2023/04/19 00:33:23;;;;;;;;;;;12.60;99.90;;;;;;4985627;28;19925;-60
2023/04/19 00:35:48;;;;;;;;;;;12.60;99.90;;;;;;4987713;28;19949;-61
2023/04/19 00:38:14;;;;;;;;;;;12.60;99.90;;;;;;4987109;28;19938;-60
2023/04/19 00:40:39;;;;;;;;;;;12.60;99.90;;;;;;4988873;28;19920;-59
2023/04/19 00:43:05;;;;;;;;;;;12.60;99.90;;;;;;4985421;28;19914;-64
2023/04/19 00:45:32;;;;;;;;;;;12.60;99.90;;;;;;4989044;28;20475;-61
2023/04/19 00:47:58;;;;;;;;;;;12.60;99.90;;;;;;4983651;28;19925;-62
2023/04/19 00:50:23;;;;;;;;;;;12.50;99.90;;;;;;4985107;28;19918;-62
2023/04/19 00:52:50;;;;;;;;;;;12.50;99.90;;;;;;4989180;28;19925;-63
2023/04/19 00:55:15;;;;;;;;;;;12.60;99.90;;;;;;4985170;28;19914;-62
2023/04/19 00:57:41;;;;;;;;;;;12.60;99.90;;;;;;4988841;28;19921;-61
2023/04/19 01:00:08;;;;;;;;;;;12.60;99.90;;;;;;4988153;28;19921;-62
2023/04/19 01:02:34;;;;;;;;;;;12.50;99.90;;;;;;4988250;28;19914;-60
2023/04/19 01:04:59;;;;;;;;;;;12.50;99.90;;;;;;4992982;28;19920;-59
2023/04/19 01:07:25;;;;;;;;;;;12.50;99.90;;;;;;4993017;28;19925;-58
2023/04/19 01:09:50;;;;;;;;;;;12.40;99.90;;;;;;4988052;28;19983;-60
2023/04/19 01:12:16;;;;;;;;;;;12.40;99.90;;;;;;4992183;28;19914;-62
2023/04/19 01:14:41;;;;;;;;;;;12.40;99.90;;;;;;4994171;28;19968;-62
2023/04/19 01:17:07;;;;;;;;;;;12.40;99.90;;;;;;4992101;28;19922;-62
2023/04/19 01:19:36;;;;;;;;;;;12.40;99.90;;;;;;4990174;28;19922;-62
2023/04/19 01:22:02;;;;;;;;;;;12.50;99.90;;;;;;4988690;28;19914;-63
2023/04/19 01:24:28;;;;;;;;;;;12.40;99.90;;;;;;4981015;28;20012;-65
2023/04/19 01:26:54;;;;;;;;;;;12.40;99.90;;;;;;4987928;28;19996;-62
2023/04/19 01:29:20;;;;;;;;;;;12.40;99.90;;;;;;4990442;28;19959;-61
2023/04/19 01:31:50;;;;;;;;;;;12.40;99.90;;;;;;4988217;28;19922;-59
2023/04/19 01:34:15;;;;;;;;;;;12.40;99.90;;;;;;4990164;28;19914;-60
2023/04/19 01:36:41;;;;;;;;;;;12.30;99.90;;;;;;4988579;28;19929;-62
2023/04/19 01:39:06;;;;;;;;;;;12.30;99.90;;;;;;4991885;28;19997;-62
2023/04/19 01:41:32;;;;;;;;;;;12.30;99.90;;;;;;4990655;28;20345;-62
2023/04/19 01:43:57;;;;;;;;;;;12.20;99.90;;;;;;4987337;28;20372;-58
2023/04/19 01:46:23;;;;;;;;;;;12.10;99.90;;;;;;4986677;28;20016;-62
2023/04/19 01:48:48;;;;;;;;;;;12.00;99.90;;;;;;4984179;28;19936;-61
2023/04/19 01:51:16;;;;;;;;;;;11.90;99.90;;;;;;4979257;28;19976;-61
2023/04/19 01:53:41;;;;;;;;;;;11.90;99.90;;;;;;4983761;28;19949;-61
2023/04/19 01:56:07;;;;;;;;;;;11.80;99.90;;;;;;4983696;28;19956;-59
2023/04/19 01:58:32;;;;;;;;;;;11.70;99.90;;;;;;4989163;28;19976;-62
2023/04/19 02:00:58;;;;;;;;;;;11.70;99.90;;;;;;4986496;28;19984;-63
2023/04/19 02:03:23;;;;;;;;;;;11.60;99.90;;;;;;4981265;28;20412;-63
2023/04/19 02:05:49;;;;;;;;;;;11.60;99.90;;;;;;4988041;28;19924;-62
2023/04/19 02:08:14;;;;;;;;;;;11.50;99.90;;;;;;4987577;28;20387;-61
2023/04/19 02:10:40;;;;;;;;;;;11.50;99.90;;;;;;4985937;28;19921;-62
2023/04/19 02:13:05;;;;;;;;;;;11.50;99.90;;;;;;4984020;28;20443;-62
2023/04/19 02:15:30;;;;;;;;;;;11.50;99.90;;;;;;4981917;28;19918;-58
2023/04/19 02:17:56;;;;;;;;;;;11.50;99.90;;;;;;4988010;28;19917;-62
2023/04/19 02:20:23;;;;;;;;;;;11.50;99.90;;;;;;4993513;28;19992;-62
2023/04/19 02:22:48;;;;;;;;;;;11.50;99.90;;;;;;4987467;28;20491;-62
2023/04/19 02:25:15;;;;;;;;;;;11.50;99.90;;;;;;4991289;28;20003;-62
2023/04/19 02:27:40;;;;;;;;;;;11.60;99.90;;;;;;4989916;28;19918;-62
2023/04/19 02:30:08;;;;;;;;;;;11.60;99.90;;;;;;4991850;28;20016;-62
2023/04/19 02:32:33;;;;;;;;;;;11.70;99.90;;;;;;4992773;28;19936;-61
2023/04/19 02:34:59;;;;;;;;;;;11.70;99.90;;;;;;4995468;28;20379;-62
2023/04/19 02:37:25;;;;;;;;;;;11.70;99.90;;;;;;4989614;28;20438;-62
2023/04/19 02:39:50;;;;;;;;;;;11.80;99.90;;;;;;4988031;28;20000;-59
2023/04/19 02:42:16;;;;;;;;;;;11.80;99.90;;;;;;4987178;28;19922;-62
2023/04/19 02:44:41;;;;;;;;;;;11.80;99.90;;;;;;4993584;28;19914;-59
2023/04/19 02:47:07;;;;;;;;;;;11.90;99.90;;;;;;4986889;28;20378;-61
2023/04/19 02:49:35;;;;;;;;;;;11.90;99.90;;;;;;4990594;28;20265;-62
2023/04/19 02:52:00;;;;;;;;;;;12.00;99.90;;;;;;4985532;28;20445;-62
2023/04/19 02:54:26;;;;;;;;;;;12.00;99.90;;;;;;4990481;28;20016;-58
2023/04/19 02:56:51;;;;;;;;;;;12.10;99.90;;;;;;4990325;28;19949;-58
2023/04/19 02:59:17;;;;;;;;;;;12.10;99.90;;;;;;4990075;28;19918;-60
2023/04/19 03:01:42;;;;;;;;;;;12.10;99.90;;;;;;4992225;28;19914;-58
2023/04/19 03:04:07;;;;;;;;;;;12.20;99.90;;;;;;4988565;28;20388;-61
2023/04/19 03:06:33;;;;;;;;;;;12.20;99.90;;;;;;4989621;28;20384;-62
2023/04/19 03:08:58;;;;;;;;;;;12.20;99.90;;;;;;4988608;28;20552;-60
2023/04/19 03:11:24;;;;;;;;;;;12.20;99.90;;;;;;4989509;28;19921;-62
2023/04/19 03:13:49;;;;;;;;;;;12.20;99.90;;;;;;4990317;28;19975;-60
2023/04/19 03:16:15;;;;;;;;;;;12.20;99.90;;;;;;4988462;28;19936;-62
2023/04/19 03:18:40;;;;;;;;;;;12.10;99.90;;;;;;4985616;28;19937;-61
2023/04/19 03:21:08;;;;;;;;;;;12.10;99.90;;;;;;4986944;28;20420;-63
2023/04/19 03:23:33;;;;;;;;;;;12.10;99.90;;;;;;4995554;28;19973;-62
2023/04/19 03:25:59;;;;;;;;;;;12.20;99.90;;;;;;4990224;28;20395;-64
2023/04/19 03:28:24;;;;;;;;;;;12.20;99.90;;;;;;4987519;28;19922;-62
2023/04/19 03:30:50;;;;;;;;;;;12.20;99.90;;;;;;4991364;28;20052;-60
2023/04/19 03:33:15;;;;;;;;;;;12.10;99.90;;;;;;4990196;28;19952;-60
2023/04/19 03:35:42;;;;;;;;;;;12.10;99.90;;;;;;4994258;28;20291;-63
2023/04/19 03:38:07;;;;;;;;;;;12.10;99.90;;;;;;4990150;28;19922;-62
2023/04/19 03:40:33;;;;;;;;;;;12.10;99.90;;;;;;4983547;28;19929;-61
2023/04/19 03:42:58;;;;;;;;;;;12.10;99.90;;;;;;4990099;28;20534;-61
2023/04/19 03:45:24;;;;;;;;;;;12.10;99.90;;;;;;4982713;28;19975;-62
2023/04/19 03:47:49;;;;;;;;;;;12.10;99.90;;;;;;4987572;28;19917;-60
2023/04/19 03:50:15;;;;;;;;;;;12.10;99.90;;;;;;4989262;28;19929;-60
2023/04/19 03:52:40;;;;;;;;;;;12.00;99.90;;;;;;4988778;28;19914;-59
2023/04/19 03:55:06;;;;;;;;;;;12.00;99.90;;;;;;4987784;28;20068;-63
2023/04/19 03:57:31;;;;;;;;;;;12.10;99.90;;;;;;4992103;28;19914;-60
2023/04/19 03:59:57;;;;;;;;;;;12.10;99.90;;;;;;4988696;28;19943;-62
2023/04/19 04:02:22;;;;;;;;;;;12.00;99.90;;;;;;4990594;28;20391;-61
2023/04/19 04:04:54;;;;;;;;;;;12.00;99.90;;;;;;4989563;28;19921;-60
2023/04/19 04:07:20;;;;;;;;;;;12.00;99.90;;;;;;4988330;28;19929;-61
2023/04/19 04:09:47;;;;;;;;;;;12.00;99.90;;;;;;4988822;28;19917;-61
2023/04/19 04:12:12;;;;;;;;;;;12.00;99.90;;;;;;4983890;28;19961;-62
2023/04/19 04:14:38;;;;;;;;;;;12.00;99.90;;;;;;4986946;28;20052;-59
2023/04/19 04:17:03;;;;;;;;;;;12.00;99.90;;;;;;4982849;28;20396;-61
2023/04/19 04:19:29;;;;;;;;;;;12.00;99.90;;;;;;4983560;28;19917;-60
2023/04/19 04:21:54;;;;;;;;;;;12.00;99.90;;;;;;4988303;28;19918;-63
2023/04/19 04:24:21;;;;;;;;;;;12.00;99.90;;;;;;4989407;28;19914;-63
2023/04/19 04:26:48;;;;;;;;;;;12.00;99.90;;;;;;4987363;28;20004;-62
2023/04/19 04:29:14;;;;;;;;;;;12.00;99.90;;;;;;4991323;28;20463;-63
2023/04/19 04:31:39;;;;;;;;;;;11.90;99.90;;;;;;4988436;28;20000;-62
2023/04/19 04:34:05;;;;;;;;;;;11.90;99.90;;;;;;4985875;28;19918;-63
2023/04/19 04:36:30;;;;;;;;;;;11.90;99.90;;;;;;4988248;28;19913;-58
2023/04/19 04:38:56;;;;;;;;;;;11.80;99.90;;;;;;4988799;28;19969;-58
2023/04/19 04:41:21;;;;;;;;;;;11.80;99.90;;;;;;4988120;28;20021;-60
2023/04/19 04:43:50;;;;;;;;;;;11.80;99.90;;;;;;4986866;28;19917;-61
2023/04/19 04:46:16;;;;;;;;;;;11.90;99.90;;;;;;4984828;28;19921;-62
2023/04/19 04:48:41;;;;;;;;;;;11.90;99.90;;;;;;4993202;28;19977;-63
2023/04/19 04:51:06;;;;;;;;;;;11.90;99.90;;;;;;4989733;28;19930;-60
2023/04/19 04:53:32;;;;;;;;;;;11.90;99.90;;;;;;4989513;28;19920;-63
2023/04/19 04:55:57;;;;;;;;;;;12.00;99.90;;;;;;4986969;28;19914;-62
2023/04/19 04:58:23;;;;;;;;;;;12.00;99.90;;;;;;4986368;28;19914;-63
2023/04/19 05:00:48;;;;;;;;;;;12.00;99.90;;;;;;4990209;28;20965;-60
2023/04/19 05:03:14;;;;;;;;;;;12.00;99.90;;;;;;4986660;28;19940;-63
2023/04/19 05:05:39;;;;;;;;;;;12.00;99.90;;;;;;4988266;28;19940;-64
2023/04/19 05:08:05;;;;;;;;;;;12.00;99.90;;;;;;4991190;28;19967;-64
2023/04/19 05:10:30;;;;;;;;;;;11.90;99.90;;;;;;4987864;28;20010;-64
2023/04/19 05:12:56;;;;;;;;;;;11.90;99.90;;;;;;4990265;28;19918;-62
2023/04/19 05:15:21;;;;;;;;;;;12.00;99.90;;;;;;4986714;28;19967;-63
2023/04/19 05:17:47;;;;;;;;;;;12.00;99.90;;;;;;4985498;28;20004;-62
2023/04/19 05:20:12;;;;;;;;;;;12.00;99.90;;;;;;4991243;28;19914;-59
2023/04/19 05:22:38;;;;;;;;;;;12.00;99.90;;;;;;4989809;28;20450;-61
2023/04/19 05:25:04;;;;;;;;;;;11.90;99.90;;;;;;4988029;28;20370;-62
2023/04/19 05:27:29;;;;;;;;;;;12.00;99.90;;;;;;4989823;28;19925;-65
2023/04/19 05:29:55;;;;;;;;;;;11.90;99.90;;;;;;4989567;28;20295;-63
2023/04/19 05:32:20;;;;;;;;;;;12.00;99.90;;;;;;4987042;28;19998;-62
2023/04/19 05:34:46;;;;;;;;;;;12.00;99.90;;;;;;4988468;28;20125;-60
2023/04/19 05:37:11;;;;;;;;;;;12.00;99.90;;;;;;4992347;28;19914;-61
2023/04/19 05:39:37;;;;;;;;;;;12.00;99.90;;;;;;4988630;28;19922;-62
2023/04/19 05:42:02;;;;;;;;;;;12.10;99.90;;;;;;4987206;28;19914;-63
2023/04/19 05:44:28;;;;;;;;;;;12.00;99.90;;;;;;4992660;28;20008;-63
2023/04/19 05:46:53;;;;;;;;;;;12.00;99.90;;;;;;4987464;28;20424;-63
2023/04/19 05:49:18;;;;;;;;;;;12.00;99.90;;;;;;4988081;28;19914;-62
2023/04/19 05:51:44;;;;;;;;;;;12.00;99.90;;;;;;4994777;28;19920;-63
2023/04/19 05:54:11;;;;;;;;;;;12.00;99.90;;;;;;4994129;28;19918;-63
2023/04/19 05:56:37;;;;;;;;;;;12.00;99.90;;;;;;4989298;28;19921;-63
2023/04/19 05:59:02;;;;;;;;;;;12.10;99.90;;;;;;4993082;28;20404;-62
2023/04/19 06:01:28;;;;;;;;;;;12.10;99.90;;;;;;4992994;28;19921;-63
2023/04/19 06:03:53;;;;;;;;;;;12.20;99.90;;;;;;4993392;28;19914;-62
2023/04/19 06:06:20;;;;;;;;;;;12.20;99.90;;;;;;4990373;28;20466;-60
2023/04/19 06:08:46;;;;;;;;;;;12.10;99.90;;;;;;4993086;28;19913;-62
2023/04/19 06:11:11;;;;;;;;;;;12.20;99.90;;;;;;4991542;28;19928;-61
2023/04/19 06:13:36;;;;;;;;;;;12.20;99.90;;;;;;4992615;28;19949;-60
2023/04/19 06:16:02;;;;;;;;;;;12.30;99.90;;;;;;5004823;28;20303;-62
2023/04/19 06:18:27;;;;;;;;;;;12.30;99.90;;;;;;4991530;28;19914;-62
2023/04/19 06:20:53;;;;;;;;;;;12.30;99.90;;;;;;4993861;28;19917;-61
2023/04/19 06:23:19;;;;;;;;;;;12.30;99.90;;;;;;4996271;28;20427;-62
2023/04/19 06:25:44;;;;;;;;;;;12.30;99.90;;;;;;4991557;28;19960;-63
2023/04/19 06:28:10;;;;;;;;;;;12.30;99.90;;;;;;4993047;28;19959;-61
2023/04/19 06:30:35;;;;;;;;;;;12.30;99.90;;;;;;4992178;28;20406;-61
2023/04/19 06:33:01;;;;;;;;;;;12.30;99.90;;;;;;4990486;28;19914;-63
2023/04/19 06:35:26;;;;;;;;;;;12.30;99.90;;;;;;4989706;28;19922;-62
2023/04/19 06:37:52;;;;;;;;;;;12.40;99.90;;;;;;4988374;28;19921;-62
2023/04/19 06:40:17;;;;;;;;;;;12.30;99.90;;;;;;4989318;28;19928;-63
2023/04/19 06:42:43;;;;;;;;;;;12.30;99.90;;;;;;4994435;28;20012;-61
2023/04/19 06:45:08;;;;;;;;;;;12.30;99.90;;;;;;4990727;28;19959;-65
2023/04/19 06:47:34;;;;;;;;;;;12.30;99.90;;;;;;4988104;28;20008;-63
2023/04/19 06:50:00;;;;;;;;;;;12.30;99.90;;;;;;4989658;28;20020;-63
2023/04/19 06:52:25;;;;;;;;;;;12.30;99.90;;;;;;4991005;28;20076;-62
2023/04/19 06:54:50;;;;;;;;;;;12.20;99.90;;;;;;4991496;28;19913;-60
2023/04/19 06:57:16;;;;;;;;;;;12.30;99.90;;;;;;4990466;28;19914;-59
2023/04/19 06:59:42;;;;;;;;;;;12.30;99.90;;;;;;4989049;28;20459;-58
2023/04/19 07:02:08;;;;;;;;;;;12.30;99.90;;;;;;4989889;28;20395;-58
2023/04/19 07:04:33;;;;;;;;;;;12.40;99.90;;;;;;4989677;28;20398;-61
2023/04/19 07:06:59;;;;;;;;;;;12.40;99.90;;;;;;4990995;28;19961;-60
2023/04/19 07:09:25;;;;;;;;;;;12.50;99.90;;;;;;4990908;28;19914;-60
2023/04/19 07:11:50;;;;;;;;;;;12.50;99.90;;;;;;4987189;28;20569;-58
2023/04/19 07:14:18;;;;;;;;;;;12.50;99.90;;;;;;4988394;28;19914;-60
2023/04/19 07:16:44;;;;;;;;;;;12.50;99.90;;;;;;4987980;28;19960;-61
2023/04/19 07:19:09;;;;;;;;;;;12.50;99.90;;;;;;4989548;28;19914;-60
2023/04/19 07:21:34;;;;;;;;;;;12.50;99.90;;;;;;4993632;28;19917;-60
2023/04/19 07:24:00;;;;;;;;;;;12.50;99.90;;;;;;4988650;28;19932;-58
2023/04/19 07:26:26;;;;;;;;;;;12.60;99.90;;;;;;4985515;28;20016;-59
2023/04/19 07:28:51;;;;;;;;;;;12.60;99.90;;;;;;4985541;28;20004;-60
2023/04/19 07:31:17;;;;;;;;;;;12.70;99.90;;;;;;4988771;28;20283;-59
2023/04/19 07:33:43;;;;;;;;;;;12.60;99.90;;;;;;4988804;28;19949;-61
2023/04/19 07:36:08;;;;;;;;;;;12.70;99.90;;;;;;4985491;28;20489;-62
2023/04/19 07:38:34;;;;;;;;;;;12.70;99.90;;;;;;4986389;28;19956;-57
2023/04/19 07:40:59;;;;;;;;;;;12.80;99.90;;;;;;4989441;28;20025;-60
2023/04/19 07:43:25;;;;;;;;;;;12.90;99.90;;;;;;4987183;28;19937;-59
2023/04/19 07:45:51;;;;;;;;;;;13.00;99.90;;;;;;4990333;28;20336;-60
2023/04/19 07:48:16;;;;;;;;;;;13.20;99.90;;;;;;4986758;28;19924;-60
2023/04/19 07:50:42;;;;;;;;;;;13.20;99.90;;;;;;4987188;28;20012;-59
2023/04/19 07:53:07;;;;;;;;;;;13.30;99.90;;;;;;4990794;28;19914;-62
2023/04/19 07:55:33;;;;;;;;;;;13.20;99.90;;;;;;4988170;28;19921;-58
2023/04/19 07:57:59;;;;;;;;;;;13.20;99.90;;;;;;4985047;28;19921;-59
2023/04/19 08:00:24;;;;;;;;;;;13.20;99.90;;;;;;4989657;28;19921;-59
2023/04/19 08:02:50;;;;;;;;;;;13.20;99.90;;;;;;4991562;28;19936;-59
2023/04/19 08:05:19;;;;;;;;;;;13.30;99.90;;;;;;4981920;28;19928;-59
2023/04/19 08:07:45;;;;;;;;;;;13.40;99.90;;;;;;4989814;28;20000;-59
2023/04/19 08:10:10;;;;;;;;;;;13.40;99.90;;;;;;4988002;28;19951;-61
2023/04/19 08:12:36;;;;;;;;;;;13.50;99.90;;;;;;4990123;28;19960;-59
2023/04/19 08:15:06;;;;;;;;;;;13.40;99.90;;;;;;4994625;28;19916;-61
2023/04/19 08:17:31;;;;;;;;;;;13.40;99.90;;;;;;4990162;28;19914;-60
2023/04/19 08:19:57;;;;;;;;;;;13.40;99.90;;;;;;4986706;28;19920;-60
2023/04/19 08:22:22;;;;;;;;;;;13.40;99.90;;;;;;4989842;28;19968;-60
2023/04/19 08:24:48;;;;;;;;;;;13.40;99.90;;;;;;4990885;28;19918;-58
2023/04/19 08:27:14;;;;;;;;;;;13.40;99.90;;;;;;4986599;28;19917;-61
2023/04/19 08:29:39;;;;;;;;;;;13.40;99.90;;;;;;4982764;28;19969;-61
2023/04/19 08:32:05;;;;;;;;;;;13.50;99.90;;;;;;4985946;28;19914;-59
2023/04/19 08:34:33;;;;;;;;;;;13.50;99.90;;;;;;4990900;28;20348;-59
2023/04/19 08:36:58;;;;;;;;;;;13.60;99.90;;;;;;4986892;28;20364;-59
2023/04/19 08:39:24;;;;;;;;;;;13.60;99.90;;;;;;4984674;28;19953;-59
2023/04/19 08:41:50;;;;;;;;;;;13.70;99.90;;;;;;4984834;28;20443;-61
2023/04/19 08:44:16;;;;;;;;;;;13.70;99.90;;;;;;4991407;28;19910;-60
2023/04/19 08:46:42;;;;;;;;;;;13.70;99.90;;;;;;4989661;28;19960;-61
2023/04/19 08:49:08;;;;;;;;;;;13.80;99.90;;;;;;4993921;28;19922;-59
2023/04/19 08:51:34;;;;;;;;;;;13.90;99.90;;;;;;4983181;28;20303;-60
2023/04/19 08:54:01;;;;;;;;;;;14.00;99.90;;;;;;4986022;28;19925;-61
2023/04/19 08:56:27;;;;;;;;;;;14.10;99.90;;;;;;4991080;28;19928;-61
2023/04/19 08:58:52;;;;;;;;;;;14.20;99.90;;;;;;4989299;28;20004;-61
2023/04/19 09:01:18;;;;;;;;;;;14.30;99.90;;;;;;4990091;28;20391;-59
2023/04/19 09:03:46;;;;;;;;;;;14.30;99.90;;;;;;4988790;28;19949;-61
2023/04/19 09:06:11;;;;;;;;;;;14.40;99.90;;;;;;4989228;28;19961;-61
2023/04/19 09:08:38;;;;;;;;;;;14.50;99.90;;;;;;4990244;28;19953;-59
2023/04/19 09:11:03;;;;;;;;;;;14.50;99.90;;;;;;4989215;28;19965;-60
2023/04/19 09:13:29;;;;;;;;;;;14.60;99.90;;;;;;4981110;28;19972;-61
2023/04/19 09:15:56;;;;;;;;;;;14.70;99.90;;;;;;4989947;28;19918;-61
2023/04/19 09:18:21;;;;;;;;;;;14.70;99.90;;;;;;4989881;28;19921;-61
2023/04/19 09:20:48;;;;;;;;;;;14.80;99.90;;;;;;4988818;28;19918;-60
2023/04/19 09:23:14;;;;;;;;;;;15.00;99.90;;;;;;4988685;28;19917;-60
2023/04/19 09:25:59;;;;;;;;;;;15.00;99.90;;;;;;4988944;28;19960;-59
2023/04/19 09:28:26;;;;;;;;;;;15.20;99.90;;;;;;4994822;28;19913;-59
2023/04/19 09:30:51;;;;;;;;;;;15.30;99.90;;;;;;5004968;28;19940;-61
2023/04/19 09:33:33;;;;;;;;;;;15.40;99.10;;;;;;4988987;28;20396;-60
2023/04/19 09:35:59;;;;;;;;;;;15.40;96.30;;;;;;4992599;28;19960;-60
2023/04/19 09:38:25;;;;;;;;;;;15.50;95.60;;;;;;4990722;28;19921;-60
2023/04/19 09:40:50;;;;;;;;;;;15.50;95.50;;;;;;4987564;28;19972;-60
2023/04/19 09:43:22;;;;;;;;;;;15.70;95.80;;;;;;4992797;28;19914;-58
2023/04/19 09:45:47;;;;;;;;;;;15.80;94.70;;;;;;4986406;28;20289;-60
2023/04/19 09:48:13;;;;;;;;;;;16.00;94.70;;;;;;4989538;28;19925;-61
2023/04/19 09:50:55;;;;;;;;;;;16.10;92.80;;;;;;4987355;28;20335;-62
2023/04/19 09:53:21;;;;;;;;;;;15.90;93.90;;;;;;4990161;28;20016;-60
2023/04/19 09:55:47;;;;;;;;;;;16.00;95.00;;;;;;4988906;28;20025;-59
2023/04/19 09:58:13;;;;;;;;;;;16.00;92.10;;;;;;4988529;28;19917;-60
2023/04/19 10:00:39;;;;;;;;;;;16.00;91.60;;;;;;4987222;28;19980;-60
2023/04/19 10:03:05;;;;;;;;;;;16.10;92.30;;;;;;4990017;28;19921;-60
2023/04/19 10:05:31;;;;;;;;;;;16.20;91.20;;;;;;4991437;28;19939;-61
2023/04/19 10:07:58;;;;;;;;;;;16.20;90.90;;;;;;4990618;28;19941;-61
2023/04/19 10:10:23;;;;;;;;;;;16.10;91.10;;;;;;4988910;28;19922;-59
2023/04/19 10:12:51;;;;;;;;;;;16.00;91.10;;;;;;4990991;28;19924;-60
2023/04/19 10:15:17;;;;;;;;;;;15.90;91.30;;;;;;4989445;28;19949;-60
2023/04/19 10:17:42;;;;;;;;;;;15.90;90.40;;;;;;4988207;28;19914;-60
2023/04/19 10:20:10;;;;;;;;;;;15.90;92.00;;;;;;4989956;28;20384;-61
2023/04/19 10:22:37;;;;;;;;;;;16.10;89.20;;;;;;5001702;28;19922;-61
2023/04/19 10:25:10;;;;;;;;;;;16.20;90.10;;;;;;4991992;28;19960;-60
2023/04/19 10:27:35;;;;;;;;;;;16.30;89.70;;;;;;4987109;28;19971;-60
2023/04/19 10:30:09;;;;;;;;;;;16.40;90.50;;;;;;4989795;28;19961;-59
2023/04/19 10:32:41;;;;;;;;;;;16.50;90.10;;;;;;4988521;28;19928;-61
2023/04/19 10:35:07;;;;;;;;;;;16.60;88.00;;;;;;4987802;28;20412;-60
2023/04/19 10:37:33;;;;;;;;;;;16.70;88.50;;;;;;4985938;28;19924;-61
2023/04/19 10:39:59;;;;;;;;;;;17.00;88.10;;;;;;4987646;28;19914;-61
2023/04/19 10:42:24;;;;;;;;;;;17.30;86.80;;;;;;4990556;28;19921;-61
2023/04/19 10:45:08;;;;;;;;;;;17.40;89.20;;;;;;4983862;28;19917;-60
2023/04/19 10:47:40;;;;;;;;;;;17.40;84.70;;;;;;4991490;28;19969;-60
2023/04/19 10:50:05;;;;;;;;;;;17.40;85.00;;;;;;4987087;28;19929;-57
2023/04/19 10:52:31;;;;;;;;;;;17.40;90.00;;;;;;4990296;28;19929;-60
2023/04/19 10:54:56;;;;;;;;;;;17.30;85.20;;;;;;4984853;28;20004;-57
2023/04/19 10:57:24;;;;;;;;;;;17.40;86.00;;;;;;4990604;28;20397;-61
2023/04/19 11:00:09;;;;;;;;;;;17.60;86.20;;;;;;4982473;28;19964;-61
2023/04/19 11:02:35;;;;;;;;;;;17.60;83.80;;;;;;4985282;28;19918;-57
2023/04/19 11:05:00;;;;;;;;;;;17.70;85.90;;;;;;4992272;28;20339;-59
2023/04/19 11:07:26;;;;;;;;;;;17.60;82.60;;;;;;4987733;28;19960;-62
2023/04/19 11:09:52;;;;;;;;;;;17.60;82.60;;;;;;4990918;28;19928;-60
2023/04/19 11:12:18;;;;;;;;;;;17.70;81.20;;;;;;4980763;28;20296;-60
2023/04/19 11:14:47;;;;;;;;;;;17.80;79.80;;;;;;4985854;28;19953;-59
2023/04/19 11:17:15;;;;;;;;;;;17.90;81.20;;;;;;4988654;28;19914;-60
2023/04/19 11:20:07;;;;;;;;;;;17.80;76.20;;;;;;4989448;28;19913;-60
2023/04/19 11:22:34;;;;;;;;;;;17.90;78.30;;;;;;4985626;28;20420;-59
2023/04/19 11:25:06;;;;;;;;;;;17.90;76.70;;;;;;4988504;28;20684;-60
2023/04/19 11:27:32;;;;;;;;;;;18.00;76.10;;;;;;4988899;28;20032;-58
2023/04/19 11:30:02;;;;;;;;;;;18.10;75.00;;;;;;4991088;28;20380;-57
2023/04/19 11:32:27;;;;;;;;;;;18.10;74.20;;;;;;4988639;28;19921;-59
2023/04/19 11:34:55;;;;;;;;;;;18.00;73.90;;;;;;4984795;28;19917;-59
2023/04/19 11:37:20;;;;;;;;;;;18.00;74.00;;;;;;4979196;28;19948;-58
2023/04/19 11:39:46;;;;;;;;;;;18.00;72.70;;;;;;4987315;28;20378;-58
2023/04/19 11:42:20;;;;;;;;;;;17.90;77.30;;;;;;4990997;28;19911;-57
2023/04/19 11:44:50;;;;;;;;;;;18.30;72.50;;;;;;4985817;28;19921;-61
2023/04/19 11:47:16;;;;;;;;;;;18.50;72.70;;;;;;4978960;28;19928;-59
2023/04/19 11:49:41;;;;;;;;;;;18.30;71.90;;;;;;4987204;28;19922;-58
2023/04/19 11:52:06;;;;;;;;;;;18.30;72.00;;;;;;4985669;28;20040;-59
2023/04/19 11:54:32;;;;;;;;;;;18.40;72.40;;;;;;4977917;28;19973;-59
2023/04/19 11:57:02;;;;;;;;;;;18.60;71.60;;;;;;4983211;28;19917;-56
2023/04/19 11:59:28;;;;;;;;;;;18.90;70.70;;;;;;4986009;28;20399;-60
2023/04/19 12:01:53;;;;;;;;;;;18.50;68.00;;;;;;4983504;28;19918;-56
2023/04/19 12:04:19;;;;;;;;;;;18.50;68.50;;;;;;4984564;28;20399;-61
2023/04/19 12:06:54;;;;;;;;;;;18.50;65.70;;;;;;4983665;28;19929;-60
2023/04/19 12:09:21;;;;;;;;;;;18.40;66.10;;;;;;4984146;28;19969;-58
2023/04/19 12:11:50;;;;;;;;;;;18.10;69.20;;;;;;4989733;28;20548;-58
2023/04/19 12:14:18;;;;;;;;;;;18.30;64.90;;;;;;4985630;28;20494;-58
2023/04/19 12:16:44;;;;;;;;;;;18.30;66.00;;;;;;4986995;28;19926;-60
2023/04/19 12:19:12;;;;;;;;;;;18.70;73.50;;;;;;4984911;28;19918;-59
2023/04/19 12:21:38;;;;;;;;;;;19.10;65.00;;;;;;4987333;28;20655;-61
2023/04/19 12:24:03;;;;;;;;;;;19.00;63.70;;;;;;4978531;28;19925;-59
2023/04/19 12:26:29;;;;;;;;;;;18.90;62.90;;;;;;4980061;28;19914;-58
2023/04/19 12:28:55;;;;;;;;;;;19.00;61.50;;;;;;4979636;28;20177;-61
2023/04/19 12:31:20;;;;;;;;;;;18.80;60.50;;;;;;4984407;28;20020;-59
2023/04/19 12:33:46;;;;;;;;;;;18.70;59.60;;;;;;4982373;28;20348;-61
2023/04/19 12:36:11;;;;;;;;;;;18.40;60.30;;;;;;4986868;28;20000;-60
2023/04/19 12:38:37;;;;;;;;;;;18.30;62.00;;;;;;4981831;28;19979;-60
2023/04/19 12:41:02;;;;;;;;;;;18.50;59.80;;;;;;4986901;28;19914;-60
2023/04/19 12:43:29;;;;;;;;;;;18.50;59.10;;;;;;4983782;28;20016;-60
2023/04/19 12:45:54;;;;;;;;;;;18.50;59.00;;;;;;4986355;28;19932;-60
2023/04/19 12:48:20;;;;;;;;;;;18.50;58.80;;;;;;4981669;28;20279;-60
2023/04/19 12:50:45;;;;;;;;;;;18.40;58.10;;;;;;4984260;28;20700;-59
2023/04/19 12:53:11;;;;;;;;;;;18.20;58.40;;;;;;4981985;28;19913;-58
2023/04/19 12:55:36;;;;;;;;;;;18.30;62.50;;;;;;4983874;28;19918;-60
2023/04/19 12:58:02;;;;;;;;;;;18.60;58.80;;;;;;4982393;28;19953;-58
2023/04/19 13:00:28;;;;;;;;;;;18.70;57.90;;;;;;4986929;28;20418;-58
2023/04/19 13:02:54;;;;;;;;;;;18.70;57.60;;;;;;4987312;28;20009;-60
2023/04/19 13:05:20;;;;;;;;;;;18.90;56.80;;;;;;4986787;28;20009;-59
2023/04/19 13:07:45;;;;;;;;;;;18.90;61.10;;;;;;4982102;28;19933;-60
2023/04/19 13:10:11;;;;;;;;;;;19.20;56.90;;;;;;4983256;28;19926;-59
2023/04/19 13:12:36;;;;;;;;;;;19.50;60.40;;;;;;4989485;28;19917;-58
2023/04/19 13:15:02;;;;;;;;;;;19.70;54.60;;;;;;4993006;28;20017;-58
2023/04/19 13:17:28;;;;;;;;;;;19.30;53.50;;;;;;4989231;28;19924;-59
2023/04/19 13:19:53;;;;;;;;;;;19.20;57.60;;;;;;4985010;28;19913;-60
2023/04/19 13:22:19;;;;;;;;;;;19.40;53.70;;;;;;4988184;28;19917;-61
2023/04/19 13:24:44;;;;;;;;;;;19.30;53.30;;;;;;4987396;28;19918;-59
2023/04/19 13:27:10;;;;;;;;;;;19.40;53.20;;;;;;4990797;28;19972;-59
2023/04/19 13:29:35;;;;;;;;;;;19.40;52.30;;;;;;4987697;28;19921;-59
2023/04/19 13:32:01;;;;;;;;;;;19.30;51.50;;;;;;4991176;28;19918;-57
2023/04/19 13:34:26;;;;;;;;;;;19.40;52.50;;;;;;4990139;28;19918;-58
2023/04/19 13:36:52;;;;;;;;;;;19.40;51.70;;;;;;4988885;28;19917;-59
2023/04/19 13:39:17;;;;;;;;;;;19.30;51.70;;;;;;4985131;28;19929;-59
2023/04/19 13:41:42;;;;;;;;;;;19.50;51.70;;;;;;4986671;28;19937;-60
2023/04/19 13:44:08;;;;;;;;;;;19.70;50.90;;;;;;4989785;28;20009;-59
2023/04/19 13:46:33;;;;;;;;;;;19.70;52.70;;;;;;4987481;28;19918;-59
2023/04/19 13:48:59;;;;;;;;;;;20.00;52.00;;;;;;4989386;28;19945;-59
2023/04/19 13:51:25;;;;;;;;;;;20.10;50.00;;;;;;4985168;28;19968;-58
2023/04/19 13:53:51;;;;;;;;;;;20.10;51.20;;;;;;4986550;28;19917;-59
2023/04/19 13:56:17;;;;;;;;;;;20.30;49.00;;;;;;4989111;28;19924;-59
2023/04/19 13:58:42;;;;;;;;;;;19.90;48.00;;;;;;4983806;28;20067;-56
2023/04/19 14:01:08;;;;;;;;;;;20.00;47.40;;;;;;4987177;28;19917;-57
2023/04/19 14:03:33;;;;;;;;;;;19.70;48.60;;;;;;4991854;28;20521;-58
2023/04/19 14:05:59;;;;;;;;;;;19.90;48.60;;;;;;4982813;28;22041;-59
2023/04/19 14:08:25;;;;;;;;;;;19.80;48.30;;;;;;4984630;28;21038;-57
2023/04/19 14:10:50;;;;;;;;;;;19.90;48.30;;;;;;4983534;28;19925;-60